Time;durP1;ratioP1;P1;durP2;ratioP2;P2;SDS_P1;SDS_P2;PMS_P1;PMS_P2;Temp;Humidity;BMP_temperature;BMP_pressure;BME280_temperature;BME280_humidity;BME280_pressure;Samples;Min_cycle;Max_cycle;Signal;HPM_P1;HPM_P2
2022/02/27 00:01:05;;;;;;;4.07;1.95;;;3.40;99.90;;;;;;5026431;28;20022;-73
2022/02/27 00:03:31;;;;;;;4.40;1.65;;;3.40;99.90;;;;;;5028246;28;20537;-74
2022/02/27 00:05:58;;;;;;;4.80;1.58;;;3.40;99.90;;;;;;5028505;28;20033;-74
2022/02/27 00:08:23;;;;;;;17.88;1.50;;;3.30;99.90;;;;;;5026819;28;20026;-72
2022/02/27 00:10:49;;;;;;;3.95;1.30;;;3.30;99.90;;;;;;5026827;28;20032;-73
2022/02/27 00:13:15;;;;;;;3.28;1.80;;;3.30;99.90;;;;;;5026643;28;20075;-72
2022/02/27 00:15:41;;;;;;;5.47;1.65;;;3.30;99.90;;;;;;5028068;28;20460;-74
2022/02/27 00:18:06;;;;;;;4.55;0.95;;;3.30;99.90;;;;;;5028033;28;20037;-75
2022/02/27 00:20:33;;;;;;;9.52;1.58;;;3.30;99.90;;;;;;5027823;28;20022;-74
2022/02/27 00:22:58;;;;;;;3.38;1.73;;;3.30;99.90;;;;;;5028036;28;20109;-74
2022/02/27 00:25:24;;;;;;;3.47;1.48;;;3.30;99.90;;;;;;5028410;28;20088;-74
2022/02/27 00:27:50;;;;;;;9.55;1.67;;;3.30;99.90;;;;;;5027482;28;20080;-73
2022/02/27 00:30:15;;;;;;;3.00;1.38;;;3.20;99.90;;;;;;5027963;28;20018;-74
2022/02/27 00:32:41;;;;;;;7.80;1.92;;;3.30;99.90;;;;;;5027865;28;20026;-74
2022/02/27 00:35:07;;;;;;;5.90;1.80;;;3.20;99.90;;;;;;5025908;28;20541;-74
2022/02/27 00:37:33;;;;;;;1.80;1.00;;;3.30;99.90;;;;;;5010138;28;20483;-74
2022/02/27 00:39:59;;;;;;;7.18;1.38;;;3.20;99.90;;;;;;5027619;28;20025;-73
2022/02/27 00:42:25;;;;;;;4.82;1.05;;;3.20;99.90;;;;;;5027256;28;20040;-74
2022/02/27 00:44:51;;;;;;;2.95;1.42;;;3.20;99.90;;;;;;5027530;28;20048;-74
2022/02/27 00:47:16;;;;;;;1.98;0.85;;;3.20;99.90;;;;;;5025873;28;20059;-74
2022/02/27 00:49:42;;;;;;;2.63;1.35;;;3.20;99.90;;;;;;5027219;28;20037;-74
2022/02/27 00:52:08;;;;;;;2.72;1.27;;;3.20;99.90;;;;;;5027388;28;20032;-74
2022/02/27 00:54:33;;;;;;;3.83;1.63;;;3.10;99.90;;;;;;5027267;28;20142;-73
2022/02/27 00:56:59;;;;;;;2.83;1.60;;;3.10;99.90;;;;;;5025644;28;20038;-74
2022/02/27 00:59:24;;;;;;;4.85;1.48;;;3.00;99.90;;;;;;5027534;28;20049;-74
2022/02/27 01:01:53;;;;;;;4.60;1.20;;;3.00;99.90;;;;;;5026972;28;20029;-73
2022/02/27 01:04:19;;;;;;;9.10;1.10;;;3.00;99.90;;;;;;5025240;28;20065;-71
2022/02/27 01:06:44;;;;;;;10.70;1.35;;;3.00;99.90;;;;;;5027389;28;20076;-72
2022/02/27 01:09:10;;;;;;;2.05;1.27;;;2.90;99.90;;;;;;5026724;28;20459;-72
2022/02/27 01:11:35;;;;;;;4.20;1.48;;;2.90;99.90;;;;;;5027114;28;20056;-73
2022/02/27 01:14:02;;;;;;;2.60;1.23;;;3.00;99.90;;;;;;5027025;28;20104;-72
2022/02/27 01:16:30;;;;;;;2.05;1.20;;;2.90;99.90;;;;;;5026218;28;20034;-71
2022/02/27 01:18:56;;;;;;;5.38;1.70;;;2.90;99.90;;;;;;5027294;28;20113;-73
2022/02/27 01:21:22;;;;;;;4.03;1.65;;;3.00;99.90;;;;;;5025394;28;20046;-70
2022/02/27 01:23:48;;;;;;;5.40;1.42;;;2.90;99.90;;;;;;5026519;28;20033;-72
2022/02/27 01:26:14;;;;;;;1.77;1.08;;;2.90;99.90;;;;;;5025700;28;20026;-72
2022/02/27 01:28:40;;;;;;;2.17;1.38;;;2.90;99.90;;;;;;5026701;28;20069;-72
2022/02/27 01:31:07;;;;;;;2.13;1.15;;;2.80;99.90;;;;;;5026661;28;20030;-71
2022/02/27 01:33:34;;;;;;;4.43;1.30;;;2.80;99.90;;;;;;5026788;28;20034;-71
2022/02/27 01:36:00;;;;;;;3.25;1.52;;;2.80;99.90;;;;;;5026454;28;20045;-71
2022/02/27 01:38:26;;;;;;;4.20;1.40;;;2.70;99.90;;;;;;5025147;28;20026;-72
2022/02/27 01:40:52;;;;;;;2.05;1.08;;;2.70;99.90;;;;;;5026940;28;20060;-72
2022/02/27 01:43:17;;;;;;;2.67;1.00;;;2.60;99.90;;;;;;5026383;28;20034;-71
2022/02/27 01:45:43;;;;;;;4.65;1.75;;;2.60;99.90;;;;;;5026403;28;20038;-72
2022/02/27 01:48:09;;;;;;;2.45;1.20;;;2.60;99.90;;;;;;5026545;28;20046;-73
2022/02/27 01:50:35;;;;;;;4.70;1.23;;;2.50;99.90;;;;;;5025299;28;20083;-75
2022/02/27 01:53:00;;;;;;;3.63;1.58;;;2.50;99.90;;;;;;5022662;28;20116;-73
2022/02/27 01:55:35;;;;;;;5.30;1.33;;;2.50;99.90;;;;;;5044913;28;20127;-73
2022/02/27 01:58:02;;;;;;;2.65;1.10;;;2.50;99.90;;;;;;5027580;28;20568;-71
2022/02/27 02:00:27;;;;;;;5.22;1.30;;;2.50;99.90;;;;;;5046148;28;20021;-71
2022/02/27 02:02:53;;;;;;;3.70;1.77;;;2.40;99.90;;;;;;5027690;28;20068;-72
2022/02/27 02:05:18;;;;;;;6.97;1.33;;;2.40;99.90;;;;;;5045691;28;20037;-71
2022/02/27 02:07:44;;;;;;;4.60;1.35;;;2.40;99.90;;;;;;5046041;28;20021;-71
2022/02/27 02:10:10;;;;;;;5.50;1.55;;;2.40;99.90;;;;;;5045741;28;20041;-72
2022/02/27 02:12:35;;;;;;;1.08;0.65;;;2.40;99.90;;;;;;5045499;28;20029;-70
2022/02/27 02:15:02;;;;;;;3.42;1.35;;;2.50;99.90;;;;;;5045829;28;20029;-72
2022/02/27 02:17:30;;;;;;;1.55;0.82;;;2.30;99.90;;;;;;5028047;28;20456;-72
2022/02/27 02:19:56;;;;;;;3.45;1.35;;;2.40;99.90;;;;;;5045561;28;20026;-71
2022/02/27 02:22:22;;;;;;;3.28;1.58;;;2.30;99.90;;;;;;5028160;28;20029;-71
2022/02/27 02:24:49;;;;;;;4.65;1.67;;;2.30;99.90;;;;;;5045571;28;20021;-73
2022/02/27 02:27:14;;;;;;;6.63;1.48;;;2.30;99.90;;;;;;5027363;28;20389;-72
2022/02/27 02:29:40;;;;;;;7.38;0.93;;;2.20;99.90;;;;;;5045560;28;20025;-71
2022/02/27 02:32:06;;;;;;;5.88;0.93;;;2.20;99.90;;;;;;5027331;28;20025;-70
2022/02/27 02:34:32;;;;;;;3.40;1.23;;;2.20;99.90;;;;;;5045452;28;20051;-72
2022/02/27 02:36:58;;;;;;;2.55;1.27;;;2.20;99.90;;;;;;5045532;28;20045;-71
2022/02/27 02:39:27;;;;;;;4.97;1.40;;;2.20;99.90;;;;;;5026993;28;20053;-74
2022/02/27 02:41:54;;;;;;;2.85;1.50;;;2.20;99.90;;;;;;5045509;28;20040;-72
2022/02/27 02:44:20;;;;;;;5.35;1.35;;;2.20;99.90;;;;;;5027487;28;20033;-72
2022/02/27 02:46:45;;;;;;;2.03;1.15;;;2.10;99.90;;;;;;5027030;28;20116;-72
2022/02/27 02:49:13;;;;;;;4.63;1.60;;;2.10;99.90;;;;;;5027442;28;20025;-73
2022/02/27 02:51:39;;;;;;;6.03;1.30;;;2.10;99.90;;;;;;5045049;28;20061;-74
2022/02/27 02:54:05;;;;;;;2.10;1.00;;;2.10;99.90;;;;;;5044560;28;20073;-72
2022/02/27 02:56:31;;;;;;;3.97;1.52;;;2.10;99.90;;;;;;5044992;28;20039;-74
2022/02/27 02:58:57;;;;;;;6.13;1.25;;;2.10;99.90;;;;;;5045251;28;20025;-74
2022/02/27 03:01:23;;;;;;;8.55;1.35;;;2.00;99.90;;;;;;5044941;28;20030;-73
2022/02/27 03:03:50;;;;;;;2.05;0.93;;;2.00;99.90;;;;;;5045104;28;20033;-75
2022/02/27 03:06:16;;;;;;;1.73;0.93;;;2.00;99.90;;;;;;5044160;28;20052;-73
2022/02/27 03:08:43;;;;;;;1.35;0.95;;;2.00;99.90;;;;;;5044553;28;20025;-74
2022/02/27 03:11:09;;;;;;;4.78;1.65;;;1.90;99.90;;;;;;5027236;28;20029;-72
2022/02/27 03:13:35;;;;;;;2.28;1.48;;;1.90;99.90;;;;;;5044865;28;20069;-72
2022/02/27 03:16:01;;;;;;;3.95;1.20;;;1.80;99.90;;;;;;5044385;28;20120;-74
2022/02/27 03:18:27;;;;;;;3.92;1.08;;;1.80;99.90;;;;;;5045042;28;20022;-73
2022/02/27 03:20:53;;;;;;;2.40;1.27;;;1.80;99.90;;;;;;5045108;28;20084;-72
2022/02/27 03:23:18;;;;;;;2.58;1.08;;;1.70;99.90;;;;;;5026392;28;20024;-73
2022/02/27 03:25:44;;;;;;;1.65;0.70;;;1.70;99.90;;;;;;5044866;28;20108;-72
2022/02/27 03:28:10;;;;;;;5.82;1.42;;;1.70;99.90;;;;;;5044816;28;20429;-73
2022/02/27 03:30:38;;;;;;;2.38;1.45;;;1.70;99.90;;;;;;5044431;28;20028;-72
2022/02/27 03:33:04;;;;;;;3.03;1.60;;;1.60;99.90;;;;;;5044905;28;20029;-72
2022/02/27 03:35:30;;;;;;;2.10;0.75;;;1.60;99.90;;;;;;5044490;28;20041;-72
2022/02/27 03:37:57;;;;;;;3.40;0.95;;;1.60;99.90;;;;;;5026599;28;20030;-72
2022/02/27 03:40:27;;;;;;;1.65;1.00;;;1.60;99.90;;;;;;5044717;28;20532;-72
2022/02/27 03:42:52;;;;;;;1.42;0.90;;;1.70;99.90;;;;;;5043553;28;20025;-74
2022/02/27 03:45:19;;;;;;;3.22;1.52;;;1.70;99.90;;;;;;5044403;28;20091;-72
2022/02/27 03:47:44;;;;;;;8.00;1.48;;;1.70;99.90;;;;;;5044710;28;20025;-72
2022/02/27 03:50:11;;;;;;;3.95;1.20;;;1.60;99.90;;;;;;5044309;28;20112;-71
2022/02/27 03:52:37;;;;;;;5.13;1.52;;;1.60;99.90;;;;;;5044097;28;20025;-73
2022/02/27 03:55:05;;;;;;;2.13;0.80;;;1.60;99.90;;;;;;5021346;28;20512;-72
2022/02/27 03:57:31;;;;;;;2.38;1.00;;;1.50;99.90;;;;;;5023072;28;20617;-72
2022/02/27 03:59:57;;;;;;;3.75;1.88;;;1.50;99.90;;;;;;5024764;28;20034;-72
2022/02/27 04:02:22;;;;;;;4.60;1.90;;;1.50;99.90;;;;;;5024985;28;20029;-73
2022/02/27 04:04:48;;;;;;;4.15;1.70;;;1.50;99.90;;;;;;5024386;28;20032;-71
2022/02/27 04:07:14;;;;;;;3.88;1.45;;;1.40;99.90;;;;;;5024465;28;20029;-73
2022/02/27 04:09:40;;;;;;;8.52;1.45;;;1.40;99.90;;;;;;5024608;28;20037;-72
2022/02/27 04:12:06;;;;;;;4.47;1.58;;;1.40;99.90;;;;;;5024402;28;20026;-72
2022/02/27 04:14:32;;;;;;;5.57;1.08;;;1.40;99.90;;;;;;5024797;28;20030;-73
2022/02/27 04:16:57;;;;;;;3.45;1.38;;;1.40;99.90;;;;;;5023148;28;20038;-74
2022/02/27 04:19:23;;;;;;;4.07;1.38;;;1.30;99.90;;;;;;5025144;28;20477;-72
2022/02/27 04:21:48;;;;;;;12.13;1.60;;;1.40;99.90;;;;;;5026339;28;20022;-72
2022/02/27 04:24:14;;;;;;;1.98;0.82;;;1.30;99.90;;;;;;5027588;28;20125;-72
2022/02/27 04:26:40;;;;;;;2.63;1.48;;;1.30;99.90;;;;;;5027578;28;20053;-72
2022/02/27 04:29:06;;;;;;;3.83;1.52;;;1.30;99.90;;;;;;5027961;28;20470;-71
2022/02/27 04:31:32;;;;;;;1.80;0.93;;;1.30;99.90;;;;;;5026760;28;20032;-72
2022/02/27 04:33:58;;;;;;;2.60;1.23;;;1.20;99.90;;;;;;5027789;28;20022;-72
2022/02/27 04:36:24;;;;;;;2.53;1.40;;;1.20;99.90;;;;;;5027718;28;20129;-73
2022/02/27 04:38:52;;;;;;;4.13;1.20;;;1.20;99.90;;;;;;5027416;28;20421;-72
2022/02/27 04:41:18;;;;;;;7.07;1.27;;;1.10;99.90;;;;;;5024061;28;20072;-73
2022/02/27 04:43:48;;;;;;;5.70;1.38;;;1.10;99.90;;;;;;5027700;28;20069;-72
2022/02/27 04:46:14;;;;;;;2.35;1.35;;;1.00;99.90;;;;;;5027330;28;20057;-73
2022/02/27 04:48:40;;;;;;;4.30;1.52;;;1.00;99.90;;;;;;5026234;28;20026;-72
2022/02/27 04:51:06;;;;;;;9.43;2.15;;;1.00;99.90;;;;;;5025927;28;20093;-74
2022/02/27 04:53:34;;;;;;;3.90;2.05;;;1.00;99.90;;;;;;5026868;28;20049;-72
2022/02/27 04:56:02;;;;;;;2.50;1.25;;;1.00;99.90;;;;;;5027543;28;20037;-72
2022/02/27 04:58:28;;;;;;;7.55;2.05;;;0.90;99.90;;;;;;5026016;28;20474;-73
2022/02/27 05:00:53;;;;;;;12.82;2.17;;;0.90;99.90;;;;;;5027266;28;20026;-72
2022/02/27 05:03:19;;;;;;;4.03;1.38;;;0.90;99.90;;;;;;5027408;28;20105;-72
2022/02/27 05:05:45;;;;;;;9.90;1.67;;;0.90;99.90;;;;;;5027205;28;20034;-74
2022/02/27 05:08:11;;;;;;;1.88;1.23;;;0.90;99.90;;;;;;5026495;28;20028;-73
2022/02/27 05:10:37;;;;;;;3.47;2.03;;;0.80;99.90;;;;;;5025840;28;20034;-73
2022/02/27 05:13:03;;;;;;;3.67;2.03;;;0.80;99.90;;;;;;5025563;28;20048;-73
2022/02/27 05:15:30;;;;;;;3.60;1.70;;;0.80;99.90;;;;;;5025444;28;20033;-74
2022/02/27 05:17:55;;;;;;;3.58;1.52;;;0.70;99.90;;;;;;5025717;28;20037;-74
2022/02/27 05:20:22;;;;;;;7.05;1.88;;;0.80;99.90;;;;;;5027098;28;20465;-73
2022/02/27 05:22:48;;;;;;;4.65;1.52;;;0.80;99.90;;;;;;5026658;28;20018;-74
2022/02/27 05:25:18;;;;;;;8.65;2.05;;;0.80;99.90;;;;;;5026754;28;20034;-72
2022/02/27 05:27:45;;;;;;;2.85;1.58;;;0.70;99.90;;;;;;5026720;28;20065;-74
2022/02/27 05:30:12;;;;;;;5.00;1.65;;;0.70;99.90;;;;;;5025554;28;20438;-73
2022/02/27 05:32:38;;;;;;;3.10;1.60;;;0.70;99.90;;;;;;5026996;28;20033;-73
2022/02/27 05:35:04;;;;;;;10.32;1.55;;;0.70;99.90;;;;;;5025235;28;20068;-73
2022/02/27 05:37:30;;;;;;;4.93;2.05;;;0.70;99.90;;;;;;5024526;28;20052;-73
2022/02/27 05:39:56;;;;;;;3.45;2.00;;;0.70;99.90;;;;;;5025224;28;20124;-74
2022/02/27 05:42:21;;;;;;;5.95;2.10;;;0.60;99.90;;;;;;5024870;28;20367;-74
2022/02/27 05:44:47;;;;;;;10.70;2.38;;;0.60;99.90;;;;;;5026384;28;20040;-75
2022/02/27 05:47:12;;;;;;;6.78;2.25;;;0.60;99.90;;;;;;5025964;28;20029;-72
2022/02/27 05:49:38;;;;;;;5.07;2.22;;;0.60;99.90;;;;;;5025920;28;20080;-73
2022/02/27 05:52:04;;;;;;;7.30;1.95;;;0.60;99.90;;;;;;5026359;28;20030;-73
2022/02/27 05:54:29;;;;;;;4.55;2.08;;;0.60;99.90;;;;;;5024789;28;20118;-73
2022/02/27 05:56:56;;;;;;;3.60;2.25;;;0.60;99.90;;;;;;5024569;28;20037;-72
2022/02/27 05:59:21;;;;;;;4.53;2.10;;;0.60;99.90;;;;;;5025095;28;20026;-73
2022/02/27 06:01:48;;;;;;;7.75;2.83;;;0.60;99.90;;;;;;5026084;28;20058;-71
2022/02/27 06:04:18;;;;;;;3.95;2.22;;;0.50;99.90;;;;;;5025929;28;20034;-72
2022/02/27 06:06:43;;;;;;;8.85;2.88;;;0.50;99.90;;;;;;5026300;28;20026;-72
2022/02/27 06:09:09;;;;;;;6.22;2.42;;;0.50;99.90;;;;;;5024408;28;20061;-72
2022/02/27 06:11:38;;;;;;;7.00;2.38;;;0.40;99.90;;;;;;5025693;28;20038;-73
2022/02/27 06:14:04;;;;;;;5.60;2.45;;;0.50;99.90;;;;;;5026167;28;20026;-73
2022/02/27 06:16:30;;;;;;;2.30;1.60;;;0.50;99.90;;;;;;5026061;28;20046;-73
2022/02/27 06:18:56;;;;;;;5.25;2.47;;;0.50;99.90;;;;;;5025744;28;20045;-74
2022/02/27 06:21:22;;;;;;;4.05;2.30;;;0.60;99.90;;;;;;5025906;28;20053;-73
2022/02/27 06:23:47;;;;;;;5.57;2.30;;;0.60;99.90;;;;;;5025660;28;20022;-73
2022/02/27 06:26:13;;;;;;;4.13;2.03;;;0.70;99.90;;;;;;5024564;28;20037;-73
2022/02/27 06:28:38;;;;;;;4.72;2.70;;;0.70;99.90;;;;;;5025863;28;20092;-73
2022/02/27 06:31:04;;;;;;;6.10;2.63;;;0.70;99.90;;;;;;5008012;28;20021;-75
2022/02/27 06:33:30;;;;;;;5.32;2.45;;;0.70;99.90;;;;;;5025500;28;20414;-74
2022/02/27 06:35:56;;;;;;;3.40;1.85;;;0.80;99.90;;;;;;5025668;28;20030;-73
2022/02/27 06:38:22;;;;;;;7.10;3.58;;;0.80;99.90;;;;;;5025433;28;20056;-73
2022/02/27 06:40:48;;;;;;;6.07;2.97;;;0.90;99.90;;;;;;5025105;28;20053;-72
2022/02/27 06:43:14;;;;;;;9.68;2.70;;;0.90;99.90;;;;;;5024306;28;20080;-73
2022/02/27 06:45:39;;;;;;;4.40;1.65;;;0.90;99.90;;;;;;5025585;28;20056;-73
2022/02/27 06:48:05;;;;;;;6.07;2.40;;;0.90;99.90;;;;;;5024840;28;20038;-73
2022/02/27 06:50:31;;;;;;;5.50;2.78;;;0.80;99.90;;;;;;5025573;28;20026;-73
2022/02/27 06:52:58;;;;;;;2.75;1.90;;;0.90;99.90;;;;;;5025070;28;20037;-75
2022/02/27 06:55:23;;;;;;;3.47;1.75;;;0.90;99.90;;;;;;5023699;28;20049;-72
2022/02/27 06:57:50;;;;;;;7.22;2.25;;;0.90;99.90;;;;;;5025456;28;20068;-73
2022/02/27 07:00:17;;;;;;;6.47;2.50;;;0.80;99.90;;;;;;5025149;28;20028;-73
2022/02/27 07:02:43;;;;;;;5.80;2.40;;;0.80;99.90;;;;;;5023541;28;20427;-75
2022/02/27 07:05:09;;;;;;;6.50;2.55;;;0.90;99.90;;;;;;5023785;28;20030;-73
2022/02/27 07:07:35;;;;;;;4.95;1.63;;;0.90;99.90;;;;;;5024940;28;20040;-73
2022/02/27 07:10:02;;;;;;;2.08;1.67;;;0.90;99.90;;;;;;5024884;28;20041;-71
2022/02/27 07:12:30;;;;;;;8.25;2.17;;;1.10;99.90;;;;;;5024659;28;20029;-71
2022/02/27 07:14:55;;;;;;;5.55;2.17;;;1.10;99.90;;;;;;5037202;28;20060;-70
2022/02/27 07:17:21;;;;;;;15.15;2.58;;;1.20;99.90;;;;;;5024741;28;20042;-70
2022/02/27 07:19:46;;;;;;;5.00;2.55;;;1.20;99.90;;;;;;5016370;28;20038;-72
2022/02/27 07:22:13;;;;;;;10.27;2.22;;;1.30;99.90;;;;;;5024505;28;20032;-72
2022/02/27 07:24:39;;;;;;;5.32;2.20;;;1.40;99.90;;;;;;5022596;28;20080;-70
2022/02/27 07:27:05;;;;;;;6.47;2.28;;;1.50;99.90;;;;;;5021524;28;20025;-72
2022/02/27 07:29:32;;;;;;;8.55;3.42;;;1.60;99.90;;;;;;5021493;28;20145;-71
2022/02/27 07:31:58;;;;;;;5.00;2.50;;;1.70;99.90;;;;;;5023617;28;20105;-71
2022/02/27 07:34:23;;;;;;;4.93;3.00;;;1.70;99.90;;;;;;5025081;28;20116;-71
2022/02/27 07:36:51;;;;;;;7.35;2.63;;;1.80;99.90;;;;;;5024567;28;20030;-72
2022/02/27 07:39:19;;;;;;;3.03;1.95;;;2.00;99.90;;;;;;5024854;28;20553;-71
2022/02/27 07:41:45;;;;;;;8.30;2.85;;;2.30;99.90;;;;;;5024598;28;20026;-72
2022/02/27 07:44:10;;;;;;;5.70;2.63;;;2.60;99.90;;;;;;5022836;28;20037;-71
2022/02/27 07:46:36;;;;;;;6.72;2.13;;;2.90;99.90;;;;;;5022166;28;20390;-72
2022/02/27 07:49:01;;;;;;;5.70;2.38;;;3.20;99.90;;;;;;5024458;28;20030;-73
2022/02/27 07:51:27;;;;;;;3.97;2.22;;;3.50;99.90;;;;;;5022277;28;20057;-73
2022/02/27 07:53:53;;;;;;;3.33;2.10;;;3.70;99.90;;;;;;5027253;28;20089;-71
2022/02/27 07:56:18;;;;;;;6.63;2.45;;;3.90;99.90;;;;;;5019612;28;20050;-72
2022/02/27 07:58:44;;;;;;;8.02;2.58;;;4.00;99.90;;;;;;5027749;28;20037;-72
2022/02/27 08:01:09;;;;;;;8.85;2.13;;;4.10;99.90;;;;;;5027673;28;20393;-72
2022/02/27 08:03:35;;;;;;;4.82;2.00;;;4.30;99.90;;;;;;5027900;28;20030;-72
2022/02/27 08:06:00;;;;;;;11.07;3.00;;;4.50;99.90;;;;;;5028485;28;20022;-72
2022/02/27 08:08:26;;;;;;;6.18;2.20;;;4.60;99.90;;;;;;5028293;28;20433;-71
2022/02/27 08:10:52;;;;;;;8.20;2.50;;;4.80;99.90;;;;;;5027680;28;20026;-72
2022/02/27 08:13:17;;;;;;;6.72;2.40;;;4.90;99.90;;;;;;5028288;28;20084;-72
2022/02/27 08:15:43;;;;;;;5.68;2.60;;;5.00;99.90;;;;;;5027019;28;20058;-72
2022/02/27 08:18:08;;;;;;;6.38;2.53;;;5.10;99.90;;;;;;5027652;28;20485;-71
2022/02/27 08:20:35;;;;;;;7.82;2.55;;;5.30;99.90;;;;;;5028106;28;20034;-72
2022/02/27 08:23:00;;;;;;;6.18;2.13;;;5.50;99.90;;;;;;5028124;28;20465;-72
2022/02/27 08:25:26;;;;;;;15.95;2.95;;;5.80;99.90;;;;;;5027791;28;20041;-73
2022/02/27 08:27:52;;;;;;;6.97;2.75;;;6.00;99.90;;;;;;5011453;28;20034;-71
2022/02/27 08:30:17;;;;;;;2.70;1.75;;;6.10;99.90;;;;;;5027870;28;20022;-71
2022/02/27 08:32:49;;;;;;;5.85;2.28;;;6.30;99.90;;;;;;5026899;28;20092;-71
2022/02/27 08:35:16;;;;;;;5.75;2.50;;;6.50;99.90;;;;;;5027833;28;20030;-71
2022/02/27 08:37:41;;;;;;;7.75;3.22;;;6.70;99.90;;;;;;5027621;28;20038;-72
2022/02/27 08:40:07;;;;;;;3.65;1.63;;;6.80;99.90;;;;;;5027339;28;20048;-72
2022/02/27 08:42:33;;;;;;;3.80;1.75;;;6.90;99.90;;;;;;5028011;28;20029;-73
2022/02/27 08:44:59;;;;;;;7.53;2.30;;;7.10;99.90;;;;;;5027396;28;20086;-71
2022/02/27 08:47:24;;;;;;;6.03;2.67;;;7.00;99.90;;;;;;5027564;28;20040;-72
2022/02/27 08:49:52;;;;;;;5.35;2.70;;;7.10;99.90;;;;;;5025549;28;20108;-73
2022/02/27 08:52:33;;;;;;;9.57;3.03;;;7.20;99.90;;;;;;5025554;28;20488;-74
2022/02/27 08:54:59;;;;;;;4.30;2.65;;;7.30;99.90;;;;;;5034019;28;20057;-72
2022/02/27 08:57:26;;;;;;;11.63;2.40;;;7.50;99.90;;;;;;5047417;28;20045;-72
2022/02/27 08:59:51;;;;;;;8.80;2.80;;;7.70;99.90;;;;;;5045425;28;20026;-72
2022/02/27 09:02:17;;;;;;;8.02;3.53;;;7.70;99.90;;;;;;5045957;28;20040;-71
2022/02/27 09:04:44;;;;;;;5.85;2.55;;;7.80;99.90;;;;;;5046888;28;20036;-70
2022/02/27 09:07:09;;;;;;;7.40;3.00;;;7.90;99.90;;;;;;5046907;28;20071;-71
2022/02/27 09:09:35;;;;;;;11.05;3.50;;;7.80;99.90;;;;;;5046695;28;20104;-73
2022/02/27 09:12:07;;;;;;;7.95;3.10;;;8.00;99.90;;;;;;5045904;28;20022;-73
2022/02/27 09:14:33;;;;;;;5.30;2.45;;;8.00;99.90;;;;;;5028119;28;20072;-72
2022/02/27 09:17:02;;;;;;;5.00;2.75;;;8.00;99.90;;;;;;5028669;28;20049;-74
2022/02/27 09:19:29;;;;;;;13.38;3.42;;;8.00;99.90;;;;;;5047001;28;20033;-71
2022/02/27 09:21:54;;;;;;;11.30;2.15;;;8.10;99.90;;;;;;5045868;28;20025;-72
2022/02/27 09:24:20;;;;;;;5.20;2.58;;;8.10;99.90;;;;;;5046393;28;20075;-72
2022/02/27 09:26:46;;;;;;;6.07;2.50;;;8.10;99.90;;;;;;5046695;28;20858;-71
2022/02/27 09:29:14;;;;;;;9.02;2.80;;;8.10;99.90;;;;;;5044661;28;20036;-71
2022/02/27 09:31:41;;;;;;;18.17;3.88;;;8.10;99.90;;;;;;5027214;28;20046;-70
2022/02/27 09:34:08;;;;;;;8.10;2.63;;;8.20;99.90;;;;;;5044331;28;20091;-71
2022/02/27 09:36:33;;;;;;;7.32;2.60;;;8.30;99.90;;;;;;5045995;28;20068;-72
2022/02/27 09:39:01;;;;;;;6.57;2.20;;;8.30;99.90;;;;;;5046421;28;20033;-73
2022/02/27 09:41:26;;;;;;;6.53;2.45;;;8.30;99.90;;;;;;5046760;28;20491;-71
2022/02/27 09:43:54;;;;;;;6.70;2.38;;;8.20;99.90;;;;;;5044934;28;20045;-72
2022/02/27 09:46:21;;;;;;;4.22;2.53;;;8.20;99.90;;;;;;5046275;28;20029;-71
2022/02/27 09:48:47;;;;;;;5.18;2.80;;;8.30;99.90;;;;;;5046409;28;20060;-70
2022/02/27 09:51:21;;;;;;;5.63;2.40;;;8.30;99.90;;;;;;5043358;28;20038;-73
2022/02/27 09:53:47;;;;;;;6.60;2.90;;;8.40;99.90;;;;;;5040144;28;20077;-71
2022/02/27 09:56:13;;;;;;;3.95;2.20;;;8.30;99.90;;;;;;5028242;28;20068;-71
2022/02/27 09:58:39;;;;;;;5.53;2.22;;;8.30;99.90;;;;;;5009245;28;20038;-74
2022/02/27 10:01:06;;;;;;;4.65;2.55;;;8.40;99.90;;;;;;5019543;28;20038;-71
2022/02/27 10:03:33;;;;;;;13.65;3.50;;;8.40;99.90;;;;;;5037346;28;20099;-74
2022/02/27 10:06:08;;;;;;;5.53;2.35;;;8.40;99.90;;;;;;5037221;28;20083;-71
2022/02/27 10:08:48;;;;;;;10.15;2.67;;;8.50;99.90;;;;;;5039069;28;20030;-69
2022/02/27 10:11:17;;;;;;;5.03;2.10;;;8.70;99.90;;;;;;5038669;28;20113;-71
2022/02/27 10:13:47;;;;;;;8.32;2.70;;;8.70;99.90;;;;;;5037130;28;20029;-72
2022/02/27 10:16:22;;;;;;;7.45;2.53;;;8.90;99.90;;;;;;5038124;28;20093;-73
2022/02/27 10:18:53;;;;;;;7.63;3.25;;;9.00;99.90;;;;;;5021060;28;20120;-70
2022/02/27 10:21:21;;;;;;;9.98;2.60;;;9.00;99.90;;;;;;5040302;28;20029;-69
2022/02/27 10:24:00;;;;;;;3.63;1.92;;;9.20;99.90;;;;;;5015903;28;20030;-73
2022/02/27 10:26:28;;;;;;;7.22;2.67;;;9.40;99.90;;;;;;5041922;28;20091;-73
2022/02/27 10:29:21;;;;;;;7.05;2.85;;;9.50;99.90;;;;;;5044187;28;20018;-74
2022/02/27 10:31:53;;;;;;;3.97;1.80;;;9.40;99.90;;;;;;5025389;28;20041;-71
2022/02/27 10:34:32;;;;;;;6.35;2.45;;;9.40;99.90;;;;;;5042532;28;20393;-71
2022/02/27 10:37:03;;;;;;;4.75;1.95;;;9.30;99.90;;;;;;5043472;28;20110;-70
2022/02/27 10:39:41;;;;;;;7.00;1.67;;;9.30;99.90;;;;;;5044104;28;20087;-72
2022/02/27 10:42:30;;;;;;;9.98;1.92;;;9.40;99.90;;;;;;5027377;28;20025;-73
2022/02/27 10:44:56;;;;;;;9.13;2.97;;;9.50;99.90;;;;;;5045154;28;20025;-71
2022/02/27 10:47:26;;;;;;;7.53;2.03;;;9.40;99.90;;;;;;5044751;28;20149;-70
2022/02/27 10:49:54;;;;;;;5.50;2.50;;;9.60;99.90;;;;;;5044763;28;20473;-73
2022/02/27 10:52:28;;;;;;;6.55;2.53;;;9.80;99.90;;;;;;5044369;28;20029;-70
2022/02/27 10:55:07;;;;;;;18.02;3.00;;;10.00;99.90;;;;;;5007185;28;20060;-71
2022/02/27 10:57:34;;;;;;;7.28;2.78;;;10.20;99.90;;;;;;5034994;28;20408;-71
2022/02/27 11:00:14;;;;;;;3.75;1.48;;;10.30;99.90;;;;;;5025044;28;20026;-75
2022/02/27 11:02:42;;;;;;;6.50;2.13;;;10.40;99.90;;;;;;5025914;28;20030;-71
2022/02/27 11:05:11;;;;;;;11.07;2.35;;;10.40;99.90;;;;;;5026669;28;20025;-75
2022/02/27 11:07:40;;;;;;;3.28;1.63;;;10.40;99.90;;;;;;5044362;28;20029;-74
2022/02/27 11:10:12;;;;;;;7.35;1.90;;;10.50;99.90;;;;;;5044765;28;20041;-73
2022/02/27 11:12:38;;;;;;;10.38;1.90;;;10.50;99.90;;;;;;5026590;28;20032;-74
2022/02/27 11:15:06;;;;;;;10.43;2.30;;;10.50;99.90;;;;;;5044559;28;20052;-74
2022/02/27 11:17:32;;;;;;;7.13;2.60;;;10.50;99.90;;;;;;5026135;28;20042;-75
2022/02/27 11:20:01;;;;;;;3.60;1.83;;;10.60;99.90;;;;;;5041293;28;20038;-72
2022/02/27 11:22:28;;;;;;;8.13;2.50;;;10.80;99.90;;;;;;5025332;28;20025;-71
2022/02/27 11:24:56;;;;;;;5.50;2.33;;;10.80;99.90;;;;;;5043421;28;20104;-70
2022/02/27 11:27:27;;;;;;;4.40;3.00;;;10.90;99.90;;;;;;5044010;28;20078;-74
2022/02/27 11:29:57;;;;;;;6.18;2.42;;;11.00;99.90;;;;;;5042018;28;20030;-70
2022/02/27 11:32:23;;;;;;;4.63;2.35;;;11.00;99.90;;;;;;5028590;28;20034;-73
2022/02/27 11:34:49;;;;;;;7.57;3.45;;;11.30;99.90;;;;;;5027756;28;20454;-74
2022/02/27 11:37:15;;;;;;;9.70;3.33;;;11.60;99.90;;;;;;5027794;28;20052;-73
2022/02/27 11:42:48;;;;;;;6.28;2.85;;;12.20;99.90;;;;;;5038660;28;20056;-73
2022/02/27 11:45:19;;;;;;;7.13;3.20;;;12.50;99.90;;;;;;5047917;28;20052;-73
2022/02/27 11:47:53;;;;;;;4.25;2.30;;;12.60;99.90;;;;;;5047897;28;20033;-73
2022/02/27 11:50:44;;;;;;;5.13;2.50;;;12.70;99.90;;;;;;5029676;28;20029;-74
2022/02/27 11:53:24;;;;;;;8.95;3.10;;;13.00;99.90;;;;;;5047350;28;20037;-73
2022/02/27 11:55:53;;;;;;;7.75;2.55;;;13.20;99.90;;;;;;5007626;28;20038;-73
2022/02/27 11:58:40;;;;;;;11.43;3.08;;;13.20;99.90;;;;;;5006993;28;20387;-73
2022/02/27 12:01:07;;;;;;;8.07;2.67;;;13.20;99.90;;;;;;5008780;28;20037;-72
2022/02/27 12:03:32;;;;;;;14.57;2.60;;;13.20;99.90;;;;;;5008378;28;20022;-76
2022/02/27 12:06:02;;;;;;;10.65;2.45;;;13.20;99.90;;;;;;5005969;28;20478;-76
2022/02/27 12:08:53;;;;;;;3.13;1.67;;;13.20;99.90;;;;;;5007796;28;20054;-74
2022/02/27 12:11:33;;;;;;;10.07;2.53;;;13.10;99.90;;;;;;5008138;28;20450;-73
2022/02/27 12:14:07;;;;;;;16.55;2.63;;;13.30;99.90;;;;;;5008781;28;20027;-73
2022/02/27 12:16:35;;;;;;;5.72;2.15;;;13.50;99.90;;;;;;5008113;28;20038;-74
2022/02/27 12:19:01;;;;;;;5.60;2.53;;;13.70;99.90;;;;;;5007077;28;20026;-72
2022/02/27 12:21:35;;;;;;;5.53;2.13;;;13.70;99.90;;;;;;5008788;28;20038;-73
2022/02/27 12:24:22;;;;;;;4.93;1.65;;;13.80;99.90;;;;;;5008038;28;20069;-76
2022/02/27 12:26:59;;;;;;;4.45;2.40;;;13.70;99.90;;;;;;5008213;28;20030;-73
2022/02/27 12:29:29;;;;;;;6.35;2.35;;;13.80;99.90;;;;;;5007987;28;20414;-73
2022/02/27 12:31:56;;;;;;;8.70;3.00;;;14.00;99.90;;;;;;5007780;28;20089;-74
2022/02/27 12:34:23;;;;;;;8.52;3.15;;;14.20;99.90;;;;;;5008402;28;20095;-72
2022/02/27 12:36:51;;;;;;;6.13;2.55;;;14.40;99.90;;;;;;5007108;28;20601;-72
2022/02/27 12:39:18;;;;;;;9.38;2.42;;;14.60;99.90;;;;;;4989370;28;20045;-72
2022/02/27 12:41:51;;;;;;;6.82;2.60;;;14.60;99.90;;;;;;5007770;28;20034;-72
2022/02/27 12:44:24;;;;;;;6.70;2.25;;;14.60;99.90;;;;;;5007709;28;20019;-77
2022/02/27 12:46:49;;;;;;;6.38;2.97;;;14.60;99.90;;;;;;5006769;28;20041;-75
2022/02/27 12:52:01;;;;;;;6.63;2.30;;;14.50;99.90;;;;;;5007330;28;20489;-76
2022/02/27 12:54:36;;;;;;;4.40;2.40;;;14.40;99.90;;;;;;5027876;28;20051;-76
2022/02/27 12:57:05;;;;;;;11.40;3.08;;;14.20;99.90;;;;;;5047276;28;20038;-73
2022/02/27 12:59:36;;;;;;;3.85;1.70;;;14.10;99.90;;;;;;5046795;28;20029;-74
2022/02/27 13:02:03;;;;;;;14.10;2.08;;;14.10;99.90;;;;;;5029281;28;20034;-72